Cormorant, Canada
Current Conditions -  °F | °C
As of 6:00 AM on Thursday 29 Jan 2015 (Local Time) from CYQD Reporting Station
Clear Clear  
Wind Chill: -32°   Ceiling: Unl
Heat Index: -13°   Visibility: 15mi
Dew Point: -18°   Wind: 10mph
Humidity: 77%   Direction: 310°NW
Pressure: 30.52"   Gusts: NA
Location:  54.23°N, 100.6°W
Report Text: CYQD 291200Z 31009KT 15SM SKC M25/M28 A3052 RMK SLP369
Loading
Personal Weather Stations






























Interactive Weather Map New forecast layout! Learn more

10-Day Weather Forecast

Advertisements
Track Severe Weather on mobile